HETR

El Tor Airport

Egypt
TAF HETR 252300Z 2600/2706 34010G20KT 9999 SCT025
Issued Valid From Valid To
Apr-25 @ 23:00 UTC
(5 hours ago)
Apr-26 @ 00:00 UTC
(4 hours ago)
Apr-27 @ 06:00 UTC
(-1 days ago)
Apr-26 @ 00:00 to Apr-27 @ 06:00
TAF HETR 252300Z 2600/2706 34010G20KT 9999 SCT025
Wind Visibility Clouds
340° at 10 knots
 Gusting to 20 knots
10,000+ meters
  • Scattered at 2,500' AGL
TAF HETR 252300Z 2600/2706 34010G20KT 9999 SCT025
Issued Apr-25 @ 23:00 UTC
(5 hours ago)
Valid From Apr-26 @ 00:00 UTC
(4 hours ago)
Valid To Apr-27 @ 06:00 UTC
(-1 days ago)
Apr-26 @ 00:00 - Apr-27 @ 06:00
Wind Visibility
340° at 10 knots
 Gusting to 20 knots
10,000+ meters
Clouds
  • Scattered at 2,500' AGL